createdAt,value
2022-07-25T00:01:06.101Z,6.00
2022-07-25T00:03:39.388Z,5.80
2022-07-25T00:06:31.207Z,6.00
2022-07-25T00:09:21.139Z,6.10
2022-07-25T00:12:11.359Z,6.10
2022-07-25T00:15:01.866Z,6.30
2022-07-25T00:17:34.231Z,6.60
2022-07-25T00:20:08.818Z,6.20
2022-07-25T00:23:16.165Z,5.50
2022-07-25T00:28:58.990Z,5.70
2022-07-25T00:31:33.073Z,6.10
2022-07-25T00:37:48.389Z,6.00
2022-07-25T00:40:39.750Z,5.40
2022-07-25T00:43:12.104Z,6.40
2022-07-25T00:46:03.200Z,6.30
2022-07-25T00:48:36.639Z,5.90
2022-07-25T00:52:03.004Z,5.70
2022-07-25T00:54:54.264Z,6.30
2022-07-25T00:57:46.214Z,6.90
2022-07-25T01:06:35.102Z,6.30
2022-07-25T01:09:43.901Z,6.30
2022-07-25T01:13:08.236Z,6.30
2022-07-25T01:15:59.846Z,7.20
2022-07-25T01:18:34.607Z,6.80
2022-07-25T01:24:12.496Z,6.40
2022-07-25T01:27:21.053Z,6.60
2022-07-25T01:30:10.735Z,6.10
2022-07-25T01:33:06.521Z,6.20
2022-07-25T01:35:57.429Z,7.00
2022-07-25T01:41:37.776Z,5.80
2022-07-25T01:44:28.468Z,6.90
2022-07-25T01:47:18.447Z,6.80
2022-07-25T01:49:50.915Z,6.80
2022-07-25T01:55:31.195Z,6.30
2022-07-25T01:58:40.621Z,6.70
2022-07-25T02:01:52.047Z,6.30
2022-07-25T02:05:17.022Z,6.40
2022-07-25T02:08:06.959Z,6.10
2022-07-25T02:14:08.594Z,6.60
2022-07-25T02:16:59.314Z,6.50
2022-07-25T02:19:49.388Z,6.80
2022-07-25T02:25:13.046Z,6.10
2022-07-25T02:28:20.698Z,6.50
2022-07-25T02:30:53.259Z,6.40
2022-07-25T02:37:09.175Z,6.70
2022-07-25T02:40:00.437Z,6.90
2022-07-25T02:42:51.609Z,6.90
2022-07-25T02:45:24.047Z,6.90
2022-07-25T02:48:16.223Z,7.20
2022-07-25T02:51:06.501Z,6.60
2022-07-25T02:54:15.517Z,6.60
2022-07-25T02:57:41.604Z,7.00
2022-07-25T03:00:33.743Z,6.60
2022-07-25T03:03:06.297Z,6.60
2022-07-25T03:06:14.546Z,7.10
2022-07-25T03:09:39.649Z,7.50
2022-07-25T03:13:06.400Z,6.90
2022-07-25T03:15:38.901Z,7.00
2022-07-25T03:18:46.372Z,7.60
2022-07-25T03:24:09.963Z,7.10
2022-07-25T03:26:42.619Z,6.80
2022-07-25T03:29:15.008Z,7.60
2022-07-25T03:31:50.810Z,7.80
2022-07-25T03:34:23.812Z,7.90
2022-07-25T03:43:31.880Z,7.40
2022-07-25T03:46:57.906Z,8.00
2022-07-25T03:49:49.193Z,6.90
2022-07-25T03:56:04.722Z,8.20
2022-07-25T03:58:37.131Z,8.10
2022-07-25T04:01:45.142Z,7.40
2022-07-25T04:04:36.960Z,8.00
2022-07-25T04:10:35.183Z,7.90
2022-07-25T04:13:07.475Z,8.20
2022-07-25T04:15:39.730Z,8.70
2022-07-25T04:25:08.851Z,7.70
2022-07-25T04:31:23.870Z,8.00
2022-07-25T04:34:14.653Z,7.30
2022-07-25T04:39:54.451Z,7.20
2022-07-25T04:42:45.063Z,7.20
2022-07-25T04:45:35.863Z,7.50
2022-07-25T04:49:37.210Z,7.20
2022-07-25T04:52:44.531Z,6.40
2022-07-25T04:55:52.830Z,6.80
2022-07-25T04:58:24.958Z,6.60
2022-07-25T05:01:15.666Z,6.40
2022-07-25T05:04:06.448Z,6.40
2022-07-25T05:06:56.322Z,6.00
2022-07-25T05:13:29.825Z,6.00
2022-07-25T05:16:02.151Z,6.30
2022-07-25T05:18:34.909Z,7.20
2022-07-25T05:21:43.762Z,6.10
2022-07-25T05:24:50.340Z,5.70
2022-07-25T05:27:59.604Z,7.40
2022-07-25T05:30:36.513Z,6.30
2022-07-25T05:33:30.718Z,6.10
2022-07-25T05:36:20.468Z,6.60
2022-07-25T05:38:54.250Z,6.30
2022-07-25T05:45:30.217Z,6.40
2022-07-25T05:48:20.265Z,5.80
2022-07-25T05:54:35.046Z,5.30
2022-07-25T05:57:43.817Z,6.00
2022-07-25T06:00:19.355Z,5.60
2022-07-25T06:03:27.458Z,5.50
2022-07-25T06:06:52.808Z,5.20
2022-07-25T06:16:00.193Z,5.00
2022-07-25T06:28:49.788Z,4.50
2022-07-25T06:34:50.427Z,4.40
2022-07-25T06:41:43.269Z,4.40
2022-07-25T06:48:03.281Z,4.30
2022-07-25T06:51:10.931Z,4.80
2022-07-25T06:54:00.377Z,4.60
2022-07-25T06:57:09.077Z,4.60
2022-07-25T06:59:41.286Z,4.50
2022-07-25T07:02:13.857Z,4.60
2022-07-25T07:04:46.304Z,4.30
2022-07-25T07:07:56.460Z,4.50
2022-07-25T07:11:05.802Z,5.00
2022-07-25T07:14:31.910Z,4.60
2022-07-25T07:21:22.905Z,4.70
2022-07-25T07:27:03.978Z,4.60
2022-07-25T07:30:18.571Z,4.60
2022-07-25T07:33:31.014Z,4.90
2022-07-25T07:36:03.947Z,4.70
2022-07-25T07:38:53.976Z,5.20
2022-07-25T07:41:43.521Z,5.20
2022-07-25T07:44:33.461Z,5.50
2022-07-25T07:47:41.568Z,5.10
2022-07-25T07:50:31.868Z,5.30
2022-07-25T07:53:57.074Z,5.70
2022-07-25T07:57:05.054Z,5.20
2022-07-25T07:59:37.219Z,5.20
2022-07-25T08:02:09.866Z,5.80
2022-07-25T08:04:59.507Z,4.90
2022-07-25T08:07:32.005Z,5.30
2022-07-25T08:13:12.444Z,5.50
2022-07-25T08:16:01.920Z,5.40
2022-07-25T08:18:52.258Z,6.10
2022-07-25T08:21:24.471Z,5.20
2022-07-25T08:24:15.696Z,5.40
2022-07-25T08:27:05.301Z,5.40
2022-07-25T08:30:30.251Z,5.00
2022-07-25T08:33:38.275Z,5.10
2022-07-25T08:39:41.732Z,5.50
2022-07-25T08:42:14.307Z,5.30
2022-07-25T08:47:57.994Z,4.80
2022-07-25T08:50:51.629Z,5.10
2022-07-25T08:54:17.187Z,6.00
2022-07-25T08:57:07.256Z,5.60
2022-07-25T09:00:00.230Z,5.10
2022-07-25T09:11:34.511Z,5.90
2022-07-25T09:21:06.085Z,5.40
2022-07-25T09:27:40.129Z,5.10
2022-07-25T09:33:45.687Z,5.50
2022-07-25T09:40:13.561Z,5.70
2022-07-25T09:42:52.609Z,5.40
2022-07-25T09:45:53.740Z,5.70
2022-07-25T09:49:21.874Z,5.10
2022-07-25T09:58:18.942Z,5.30
2022-07-25T10:08:07.216Z,5.10
2022-07-25T10:11:22.152Z,5.90
2022-07-25T10:17:28.613Z,5.30
2022-07-25T10:20:55.457Z,5.70
2022-07-25T10:23:46.461Z,5.40
2022-07-25T10:26:19.925Z,5.50
2022-07-25T10:38:44.417Z,5.00
2022-07-25T10:47:42.647Z,5.60
2022-07-25T10:50:57.571Z,5.40
2022-07-25T10:53:55.918Z,5.60
2022-07-25T11:00:10.781Z,5.40
2022-07-25T11:03:36.646Z,5.20
2022-07-25T11:06:09.742Z,5.90
2022-07-25T11:08:42.457Z,5.20
2022-07-25T11:11:57.490Z,5.40
2022-07-25T11:14:47.922Z,5.60
2022-07-25T11:21:08.587Z,5.20
2022-07-25T11:24:15.347Z,5.10
2022-07-25T11:27:11.716Z,5.50
2022-07-25T11:30:03.322Z,5.30
2022-07-25T11:33:38.412Z,5.60
2022-07-25T11:36:57.497Z,5.00
2022-07-25T11:39:32.083Z,5.30
2022-07-25T11:42:22.664Z,5.50
2022-07-25T11:44:56.729Z,5.80
2022-07-25T11:51:27.197Z,5.10
2022-07-25T11:54:34.776Z,5.20
2022-07-25T11:57:09.019Z,5.80
2022-07-25T12:00:19.789Z,5.90
2022-07-25T12:03:47.338Z,5.50
2022-07-25T12:07:31.959Z,5.30
2022-07-25T12:13:43.505Z,5.40
2022-07-25T12:17:08.803Z,6.00
2022-07-25T12:20:20.210Z,4.80
2022-07-25T12:23:13.577Z,5.40
2022-07-25T12:29:47.600Z,5.10
2022-07-25T12:32:19.998Z,5.10
2022-07-25T12:38:19.933Z,5.20
2022-07-25T12:42:03.439Z,5.40
2022-07-25T12:44:56.971Z,5.30
2022-07-25T12:47:30.473Z,5.10
2022-07-25T12:57:30.214Z,6.30
2022-07-25T13:03:49.206Z,5.50
2022-07-25T13:07:14.357Z,5.40
2022-07-25T13:13:48.957Z,5.10
2022-07-25T13:16:39.352Z,5.10
2022-07-25T13:23:00.514Z,5.30
2022-07-25T13:25:33.875Z,5.00
2022-07-25T13:32:28.574Z,5.20
2022-07-25T13:35:20.828Z,5.50
2022-07-25T13:38:13.528Z,5.10
2022-07-25T13:48:18.973Z,4.70
2022-07-25T13:51:04.523Z,5.20
2022-07-25T13:53:36.750Z,5.80
2022-07-25T13:56:43.522Z,5.00
2022-07-25T13:59:33.383Z,5.90
2022-07-25T14:02:57.930Z,5.40
2022-07-25T14:05:49.543Z,5.60
2022-07-25T14:14:02.642Z,6.00
2022-07-25T14:16:35.311Z,5.70
2022-07-25T14:19:24.527Z,6.20
2022-07-25T14:22:15.459Z,5.70
2022-07-25T14:28:32.765Z,6.00
2022-07-25T14:31:05.203Z,5.90
2022-07-25T14:34:15.575Z,5.90
2022-07-25T14:43:03.175Z,6.20
2022-07-25T14:48:57.089Z,5.60
2022-07-25T14:51:26.188Z,6.20
2022-07-25T14:54:31.667Z,6.10
2022-07-25T14:57:37.840Z,6.20
2022-07-25T15:00:09.810Z,6.10
2022-07-25T15:02:56.981Z,6.40
2022-07-25T15:05:29.610Z,5.80
2022-07-25T15:08:35.009Z,6.00
2022-07-25T15:15:25.764Z,5.80
2022-07-25T15:18:14.194Z,6.40
2022-07-25T15:20:43.216Z,6.50
2022-07-25T15:26:18.577Z,5.80
2022-07-25T15:29:25.531Z,5.70
2022-07-25T15:31:55.662Z,6.90
2022-07-25T15:34:24.695Z,5.90
2022-07-25T15:37:29.901Z,6.10
2022-07-25T15:40:00.392Z,6.20
2022-07-25T15:42:29.750Z,5.90
2022-07-25T15:45:37.359Z,5.30
2022-07-25T15:54:45.932Z,4.20
2022-07-25T15:57:46.829Z,4.50
2022-07-25T16:02:45.877Z,4.90
2022-07-25T16:05:15.230Z,5.00
2022-07-25T16:08:03.564Z,5.00
2022-07-25T16:10:50.546Z,4.90
2022-07-25T16:13:56.070Z,5.10
2022-07-25T16:17:01.630Z,4.90
2022-07-25T16:19:49.282Z,5.30
2022-07-25T16:22:57.191Z,4.50
2022-07-25T16:31:57.081Z,5.10
2022-07-25T16:34:29.201Z,5.10
2022-07-25T16:37:16.703Z,5.50
2022-07-25T16:43:12.223Z,5.60
2022-07-25T16:45:42.469Z,5.20
2022-07-25T16:48:49.632Z,4.90
2022-07-25T16:51:54.737Z,5.10
2022-07-25T16:55:02.415Z,5.30
2022-07-25T16:58:07.154Z,4.80
2022-07-25T17:00:36.647Z,5.10
2022-07-25T17:03:27.588Z,5.30
2022-07-25T17:05:57.032Z,5.50
2022-07-25T17:09:06.134Z,5.50
2022-07-25T17:14:42.160Z,4.80
2022-07-25T17:17:48.349Z,5.50
2022-07-25T17:20:35.860Z,5.20
2022-07-25T17:26:30.130Z,4.90
2022-07-25T17:29:54.555Z,5.30
2022-07-25T17:33:03.562Z,4.90
2022-07-25T17:36:09.191Z,5.50
2022-07-25T17:42:21.640Z,4.80
2022-07-25T17:45:09.978Z,5.40
2022-07-25T17:53:51.109Z,5.40
2022-07-25T17:56:57.681Z,5.50
2022-07-25T18:00:08.068Z,5.40
2022-07-25T18:08:18.568Z,5.40
2022-07-25T18:14:33.772Z,5.50
2022-07-25T18:17:22.514Z,5.30
2022-07-25T18:20:10.666Z,5.60
2022-07-25T18:23:16.383Z,5.00
2022-07-25T18:26:06.159Z,5.60
2022-07-25T18:28:53.126Z,5.30
2022-07-25T18:31:58.165Z,5.40
2022-07-25T18:34:45.684Z,5.80
2022-07-25T18:37:15.462Z,5.40
2022-07-25T18:43:27.521Z,5.90
2022-07-25T18:46:35.752Z,6.40
2022-07-25T18:49:42.385Z,6.20
2022-07-25T18:55:59.385Z,6.50
2022-07-25T18:58:47.237Z,5.50
2022-07-25T19:01:35.730Z,6.10
2022-07-25T19:07:29.435Z,6.20
2022-07-25T19:13:48.400Z,5.70
2022-07-25T19:16:54.402Z,6.30
2022-07-25T19:19:41.614Z,5.80
2022-07-25T19:22:10.525Z,5.60
2022-07-25T19:24:57.644Z,7.40
2022-07-25T19:28:03.070Z,5.60
2022-07-25T19:30:51.770Z,5.60
2022-07-25T19:33:39.585Z,5.60
2022-07-25T19:36:10.263Z,5.30
2022-07-25T19:38:57.117Z,4.80
2022-07-25T19:45:29.352Z,5.20
2022-07-25T19:51:58.287Z,5.40
2022-07-25T19:57:53.054Z,4.70
2022-07-25T20:00:59.726Z,4.80
2022-07-25T20:07:29.602Z,5.30
2022-07-25T20:16:13.994Z,5.60
2022-07-25T20:19:01.129Z,4.40
2022-07-25T20:28:00.358Z,4.20
2022-07-25T20:31:06.370Z,5.10
2022-07-25T20:33:53.942Z,5.20
2022-07-25T20:37:18.729Z,5.50
2022-07-25T20:40:08.656Z,5.10
2022-07-25T20:43:15.120Z,5.30
2022-07-25T20:45:45.022Z,5.20
2022-07-25T20:49:10.321Z,5.20
2022-07-25T20:51:58.920Z,5.40
2022-07-25T20:54:46.949Z,5.00
2022-07-25T20:58:11.243Z,5.40
2022-07-25T21:00:58.248Z,5.50
2022-07-25T21:06:37.199Z,5.20
2022-07-25T21:13:26.604Z,4.60
2022-07-25T21:24:24.346Z,4.70
2022-07-25T21:27:11.353Z,4.20
2022-07-25T21:30:16.403Z,4.70
2022-07-25T21:33:23.487Z,4.50
2022-07-25T21:41:46.644Z,4.60
2022-07-25T21:44:33.744Z,4.00
2022-07-25T21:47:21.581Z,4.70
2022-07-25T21:50:13.902Z,4.40
2022-07-25T21:53:24.687Z,4.10
2022-07-25T21:55:53.427Z,3.70
2022-07-25T22:02:24.292Z,3.10
2022-07-25T22:05:12.306Z,3.40
2022-07-25T22:08:19.240Z,3.60
2022-07-25T22:10:48.391Z,3.90
2022-07-25T22:13:37.223Z,3.70
2022-07-25T22:16:11.327Z,3.80
2022-07-25T22:18:40.213Z,3.20
2022-07-25T22:21:27.489Z,3.30
2022-07-25T22:24:15.515Z,3.60
2022-07-25T22:27:02.945Z,3.10
2022-07-25T22:29:49.822Z,3.30
2022-07-25T22:32:56.644Z,3.20
2022-07-25T22:36:02.075Z,3.50
2022-07-25T22:39:08.081Z,2.90
2022-07-25T22:41:38.300Z,3.30
2022-07-25T22:44:26.349Z,3.40
2022-07-25T22:47:31.871Z,3.60
2022-07-25T22:54:37.924Z,2.90
2022-07-25T23:00:48.834Z,2.60
2022-07-25T23:06:58.399Z,3.20
2022-07-25T23:09:33.709Z,3.00
2022-07-25T23:12:23.612Z,2.70
2022-07-25T23:15:11.074Z,3.30
2022-07-25T23:21:05.443Z,2.80
2022-07-25T23:24:28.774Z,3.90
2022-07-25T23:27:35.185Z,2.90
2022-07-25T23:33:31.673Z,2.50
2022-07-25T23:36:19.590Z,2.60
2022-07-25T23:39:43.045Z,2.90
2022-07-25T23:43:07.468Z,2.70
2022-07-25T23:45:36.751Z,3.10
2022-07-25T23:48:49.972Z,3.20
2022-07-25T23:54:43.606Z,2.50
2022-07-25T23:57:49.982Z,2.70
